Terminal Aerodrome Forecast
Issued by NWS Atlanta, GA

Home | Current Version | Previous Version | Text Only | Print | Product List | Glossary On
Versions: 1 2 3 4 5 6 7 8 9 10 11 12 13 14 15 16 17 18 19 20 21 22
000
FTUS42 KFFC 302344
TAFCSG
TAF
KCSG 302344Z 3100/3124 04006KT P6SM FEW025 SCT060
     FM310600 08004KT P6SM BKN005 OVC030
     FM311400 08005KT 5SM BR BKN010
     FM311600 05006KT P6SM OVC025
     FM311800 06006KT P6SM SCT025 SCT250=

USA.gov is the U.S. government's official web portal to all federal, state and local government web resources and services.